Terminal Aerodrome Forecast
Issued by NWS Pittsburgh, PA

Current Version | Previous Version | Graphics & Text | Print | Product List | Glossary On
Versions: 1 2 3 4 5 6 7 8 9 10 11 12 13 14 15 16 17 18 19 20 21 22 23 24 25 26 27 28 29 30 31 32 33 34 35
960
FTUS41 KPBZ 262320
TAFPIT
TAF
KPIT 262320Z 2700/2806 20006KT P6SM SKC
     FM271300 22010KT P6SM OVC050
     FM271700 21012KT P6SM OVC025
     FM280200 VRB05KT P6SM BKN050=

USA.gov is the U.S. government's official web portal to all federal, state and local government web resources and services.